sensor_id;sensor_type;location;lat;lon;timestamp;temperature;humidity
37642;DHT22;23486;51.956;5.888;2022-08-03T00:01:43;21.70;99.90
37642;DHT22;23486;51.956;5.888;2022-08-03T00:04:10;21.60;99.90
37642;DHT22;23486;51.956;5.888;2022-08-03T00:06:42;21.60;99.90
37642;DHT22;23486;51.956;5.888;2022-08-03T00:09:08;21.50;99.90
37642;DHT22;23486;51.956;5.888;2022-08-03T00:11:34;21.50;99.90
37642;DHT22;23486;51.956;5.888;2022-08-03T00:14:00;21.40;99.90
37642;DHT22;23486;51.956;5.888;2022-08-03T00:16:25;21.40;99.90
37642;DHT22;23486;51.956;5.888;2022-08-03T00:18:51;21.40;99.90
37642;DHT22;23486;51.956;5.888;2022-08-03T00:21:17;21.40;99.90
37642;DHT22;23486;51.956;5.888;2022-08-03T00:23:42;21.40;99.90
37642;DHT22;23486;51.956;5.888;2022-08-03T00:26:08;21.30;99.90
37642;DHT22;23486;51.956;5.888;2022-08-03T00:28:34;21.40;99.90
37642;DHT22;23486;51.956;5.888;2022-08-03T00:30:59;21.30;99.90
37642;DHT22;23486;51.956;5.888;2022-08-03T00:33:25;21.30;99.90
37642;DHT22;23486;51.956;5.888;2022-08-03T00:35:51;21.20;99.90
37642;DHT22;23486;51.956;5.888;2022-08-03T00:38:18;21.10;99.90
37642;DHT22;23486;51.956;5.888;2022-08-03T00:40:43;21.10;99.90
37642;DHT22;23486;51.956;5.888;2022-08-03T00:43:09;21.00;99.90
37642;DHT22;23486;51.956;5.888;2022-08-03T00:45:37;21.00;99.90
37642;DHT22;23486;51.956;5.888;2022-08-03T00:48:04;21.00;99.90
37642;DHT22;23486;51.956;5.888;2022-08-03T00:50:33;21.00;99.90
37642;DHT22;23486;51.956;5.888;2022-08-03T00:53:02;20.90;99.90
37642;DHT22;23486;51.956;5.888;2022-08-03T00:55:29;20.90;99.90
37642;DHT22;23486;51.956;5.888;2022-08-03T00:57:55;20.80;99.90
37642;DHT22;23486;51.956;5.888;2022-08-03T01:00:25;20.80;99.90
37642;DHT22;23486;51.956;5.888;2022-08-03T01:02:51;20.70;99.90
37642;DHT22;23486;51.956;5.888;2022-08-03T01:05:18;20.70;99.90
37642;DHT22;23486;51.956;5.888;2022-08-03T01:15:53;20.60;99.90
37642;DHT22;23486;51.956;5.888;2022-08-03T01:18:44;20.50;99.90
37642;DHT22;23486;51.956;5.888;2022-08-03T01:21:39;20.50;99.90
37642;DHT22;23486;51.956;5.888;2022-08-03T01:27:14;20.60;99.90
37642;DHT22;23486;51.956;5.888;2022-08-03T01:30:02;20.50;99.90
37642;DHT22;23486;51.956;5.888;2022-08-03T01:32:52;20.50;99.90
37642;DHT22;23486;51.956;5.888;2022-08-03T01:35:28;20.50;99.90
37642;DHT22;23486;51.956;5.888;2022-08-03T01:38:03;20.50;99.90
37642;DHT22;23486;51.956;5.888;2022-08-03T01:40:33;20.40;99.90
37642;DHT22;23486;51.956;5.888;2022-08-03T01:43:01;20.40;99.90
37642;DHT22;23486;51.956;5.888;2022-08-03T01:45:28;20.40;99.90
37642;DHT22;23486;51.956;5.888;2022-08-03T01:47:55;20.40;99.90
37642;DHT22;23486;51.956;5.888;2022-08-03T01:50:25;20.30;99.90
37642;DHT22;23486;51.956;5.888;2022-08-03T01:52:52;20.30;99.90
37642;DHT22;23486;51.956;5.888;2022-08-03T01:55:19;20.30;99.90
37642;DHT22;23486;51.956;5.888;2022-08-03T01:57:47;20.20;99.90
37642;DHT22;23486;51.956;5.888;2022-08-03T02:00:13;20.20;99.90
37642;DHT22;23486;51.956;5.888;2022-08-03T02:02:39;20.20;99.90
37642;DHT22;23486;51.956;5.888;2022-08-03T02:05:08;20.10;99.90
37642;DHT22;23486;51.956;5.888;2022-08-03T02:07:35;20.10;99.90
37642;DHT22;23486;51.956;5.888;2022-08-03T02:10:03;20.10;99.90
37642;DHT22;23486;51.956;5.888;2022-08-03T02:12:30;20.00;99.90
37642;DHT22;23486;51.956;5.888;2022-08-03T02:14:58;19.90;99.90
37642;DHT22;23486;51.956;5.888;2022-08-03T02:17:25;19.90;99.90
37642;DHT22;23486;51.956;5.888;2022-08-03T02:19:53;19.90;99.90
37642;DHT22;23486;51.956;5.888;2022-08-03T02:22:21;19.80;99.90
37642;DHT22;23486;51.956;5.888;2022-08-03T02:24:49;19.80;99.90
37642;DHT22;23486;51.956;5.888;2022-08-03T02:27:28;19.80;99.90
37642;DHT22;23486;51.956;5.888;2022-08-03T02:30:03;19.70;99.90
37642;DHT22;23486;51.956;5.888;2022-08-03T02:32:34;19.70;99.90
37642;DHT22;23486;51.956;5.888;2022-08-03T02:35:03;19.60;99.90
37642;DHT22;23486;51.956;5.888;2022-08-03T02:37:33;19.60;99.90
37642;DHT22;23486;51.956;5.888;2022-08-03T02:40:02;19.60;99.90
37642;DHT22;23486;51.956;5.888;2022-08-03T02:42:29;19.60;99.90
37642;DHT22;23486;51.956;5.888;2022-08-03T02:44:58;19.50;99.90
37642;DHT22;23486;51.956;5.888;2022-08-03T02:47:26;19.50;99.90
37642;DHT22;23486;51.956;5.888;2022-08-03T02:49:53;19.50;99.90
37642;DHT22;23486;51.956;5.888;2022-08-03T02:52:22;19.40;99.90
37642;DHT22;23486;51.956;5.888;2022-08-03T02:54:51;19.40;99.90
37642;DHT22;23486;51.956;5.888;2022-08-03T02:57:22;19.30;99.90
37642;DHT22;23486;51.956;5.888;2022-08-03T02:59:49;19.30;99.90
37642;DHT22;23486;51.956;5.888;2022-08-03T03:02:17;19.20;99.90
37642;DHT22;23486;51.956;5.888;2022-08-03T03:04:46;19.20;99.90
37642;DHT22;23486;51.956;5.888;2022-08-03T03:07:17;19.20;99.90
37642;DHT22;23486;51.956;5.888;2022-08-03T03:09:44;19.20;99.90
37642;DHT22;23486;51.956;5.888;2022-08-03T03:12:14;19.20;99.90
37642;DHT22;23486;51.956;5.888;2022-08-03T03:14:41;19.10;99.90
37642;DHT22;23486;51.956;5.888;2022-08-03T03:17:08;19.10;99.90
37642;DHT22;23486;51.956;5.888;2022-08-03T03:19:36;19.10;99.90
37642;DHT22;23486;51.956;5.888;2022-08-03T03:22:04;19.00;99.90
37642;DHT22;23486;51.956;5.888;2022-08-03T03:24:32;19.00;99.90
37642;DHT22;23486;51.956;5.888;2022-08-03T03:26:59;18.90;99.90
37642;DHT22;23486;51.956;5.888;2022-08-03T03:29:25;18.90;99.90
37642;DHT22;23486;51.956;5.888;2022-08-03T03:31:51;18.90;99.90
37642;DHT22;23486;51.956;5.888;2022-08-03T03:34:17;18.90;99.90
37642;DHT22;23486;51.956;5.888;2022-08-03T03:36:43;18.90;99.90
37642;DHT22;23486;51.956;5.888;2022-08-03T03:39:09;18.90;99.90
37642;DHT22;23486;51.956;5.888;2022-08-03T03:41:35;18.80;99.90
37642;DHT22;23486;51.956;5.888;2022-08-03T03:44:01;18.80;99.90
37642;DHT22;23486;51.956;5.888;2022-08-03T03:46:27;18.80;99.90
37642;DHT22;23486;51.956;5.888;2022-08-03T03:48:53;18.80;99.90
37642;DHT22;23486;51.956;5.888;2022-08-03T03:51:18;18.70;99.90
37642;DHT22;23486;51.956;5.888;2022-08-03T03:53:57;18.80;99.90
37642;DHT22;23486;51.956;5.888;2022-08-03T03:56:23;18.80;99.90
37642;DHT22;23486;51.956;5.888;2022-08-03T03:58:51;18.70;99.90
37642;DHT22;23486;51.956;5.888;2022-08-03T04:01:16;18.70;99.90
37642;DHT22;23486;51.956;5.888;2022-08-03T04:03:42;18.70;99.90
37642;DHT22;23486;51.956;5.888;2022-08-03T04:06:09;18.70;99.90
37642;DHT22;23486;51.956;5.888;2022-08-03T04:08:53;18.70;99.90
37642;DHT22;23486;51.956;5.888;2022-08-03T04:11:52;18.70;99.90
37642;DHT22;23486;51.956;5.888;2022-08-03T04:14:23;18.70;99.90
37642;DHT22;23486;51.956;5.888;2022-08-03T04:16:57;18.70;99.90
37642;DHT22;23486;51.956;5.888;2022-08-03T04:21:59;18.70;99.90
37642;DHT22;23486;51.956;5.888;2022-08-03T04:24:33;18.70;99.90
37642;DHT22;23486;51.956;5.888;2022-08-03T04:27:02;18.70;99.90
37642;DHT22;23486;51.956;5.888;2022-08-03T04:29:32;18.70;99.90
37642;DHT22;23486;51.956;5.888;2022-08-03T04:31:59;18.70;99.90
37642;DHT22;23486;51.956;5.888;2022-08-03T04:34:29;18.60;99.90
37642;DHT22;23486;51.956;5.888;2022-08-03T04:36:59;18.70;99.90
37642;DHT22;23486;51.956;5.888;2022-08-03T04:39:27;18.70;99.90
37642;DHT22;23486;51.956;5.888;2022-08-03T04:41:55;18.80;99.90
37642;DHT22;23486;51.956;5.888;2022-08-03T04:44:23;18.80;99.90
37642;DHT22;23486;51.956;5.888;2022-08-03T04:46:50;18.90;99.90
37642;DHT22;23486;51.956;5.888;2022-08-03T04:49:18;18.90;99.90
37642;DHT22;23486;51.956;5.888;2022-08-03T04:51:44;19.00;99.90
37642;DHT22;23486;51.956;5.888;2022-08-03T04:54:13;19.10;99.90
37642;DHT22;23486;51.956;5.888;2022-08-03T04:56:40;19.10;99.90
37642;DHT22;23486;51.956;5.888;2022-08-03T04:59:06;19.20;99.90
37642;DHT22;23486;51.956;5.888;2022-08-03T05:01:32;19.20;99.90
37642;DHT22;23486;51.956;5.888;2022-08-03T05:03:58;19.30;99.90
37642;DHT22;23486;51.956;5.888;2022-08-03T05:06:23;19.40;99.90
37642;DHT22;23486;51.956;5.888;2022-08-03T05:08:49;19.50;99.90
37642;DHT22;23486;51.956;5.888;2022-08-03T05:11:15;19.50;99.90
37642;DHT22;23486;51.956;5.888;2022-08-03T05:13:41;19.60;99.90
37642;DHT22;23486;51.956;5.888;2022-08-03T05:16:07;19.60;99.90
37642;DHT22;23486;51.956;5.888;2022-08-03T05:18:32;19.60;99.90
37642;DHT22;23486;51.956;5.888;2022-08-03T05:20:58;19.70;99.90
37642;DHT22;23486;51.956;5.888;2022-08-03T05:23:23;19.70;99.90
37642;DHT22;23486;51.956;5.888;2022-08-03T05:25:49;19.70;99.90
37642;DHT22;23486;51.956;5.888;2022-08-03T05:28:14;19.80;99.90
37642;DHT22;23486;51.956;5.888;2022-08-03T05:30:40;19.70;99.90
37642;DHT22;23486;51.956;5.888;2022-08-03T05:33:06;19.80;99.90
37642;DHT22;23486;51.956;5.888;2022-08-03T05:35:31;19.80;99.90
37642;DHT22;23486;51.956;5.888;2022-08-03T05:37:59;19.90;99.90
37642;DHT22;23486;51.956;5.888;2022-08-03T05:40:25;19.90;99.90
37642;DHT22;23486;51.956;5.888;2022-08-03T05:42:50;20.00;99.90
37642;DHT22;23486;51.956;5.888;2022-08-03T05:45:16;20.00;99.90
37642;DHT22;23486;51.956;5.888;2022-08-03T05:47:46;20.10;99.90
37642;DHT22;23486;51.956;5.888;2022-08-03T05:50:13;20.20;99.90
37642;DHT22;23486;51.956;5.888;2022-08-03T05:52:39;20.20;99.90
37642;DHT22;23486;51.956;5.888;2022-08-03T05:55:06;20.20;99.90
37642;DHT22;23486;51.956;5.888;2022-08-03T05:57:32;20.30;99.90
37642;DHT22;23486;51.956;5.888;2022-08-03T05:59:58;20.30;99.90
37642;DHT22;23486;51.956;5.888;2022-08-03T06:02:26;20.40;99.90
37642;DHT22;23486;51.956;5.888;2022-08-03T06:04:52;20.40;99.90
37642;DHT22;23486;51.956;5.888;2022-08-03T06:07:18;20.40;99.90
37642;DHT22;23486;51.956;5.888;2022-08-03T06:09:46;20.50;99.90
37642;DHT22;23486;51.956;5.888;2022-08-03T06:12:12;20.50;99.90
37642;DHT22;23486;51.956;5.888;2022-08-03T06:14:38;20.60;99.90
37642;DHT22;23486;51.956;5.888;2022-08-03T06:17:03;20.60;99.90
37642;DHT22;23486;51.956;5.888;2022-08-03T06:19:29;20.70;99.90
37642;DHT22;23486;51.956;5.888;2022-08-03T06:21:54;20.80;99.90
37642;DHT22;23486;51.956;5.888;2022-08-03T06:24:20;20.70;99.90
37642;DHT22;23486;51.956;5.888;2022-08-03T06:26:45;20.70;99.90
37642;DHT22;23486;51.956;5.888;2022-08-03T06:29:11;20.70;99.90
37642;DHT22;23486;51.956;5.888;2022-08-03T06:31:39;20.80;99.90
37642;DHT22;23486;51.956;5.888;2022-08-03T06:34:05;20.80;99.90
37642;DHT22;23486;51.956;5.888;2022-08-03T06:36:30;20.90;99.90
37642;DHT22;23486;51.956;5.888;2022-08-03T06:38:59;20.90;99.90
37642;DHT22;23486;51.956;5.888;2022-08-03T06:41:26;21.00;99.90
37642;DHT22;23486;51.956;5.888;2022-08-03T06:43:53;21.00;99.90
37642;DHT22;23486;51.956;5.888;2022-08-03T06:46:19;21.10;99.90
37642;DHT22;23486;51.956;5.888;2022-08-03T06:48:45;21.10;99.90
37642;DHT22;23486;51.956;5.888;2022-08-03T06:51:11;21.20;99.90
37642;DHT22;23486;51.956;5.888;2022-08-03T06:53:37;21.20;99.90
37642;DHT22;23486;51.956;5.888;2022-08-03T06:56:06;21.30;99.90
37642;DHT22;23486;51.956;5.888;2022-08-03T06:58:33;21.30;99.90
37642;DHT22;23486;51.956;5.888;2022-08-03T07:00:59;21.30;99.90
37642;DHT22;23486;51.956;5.888;2022-08-03T07:03:25;21.40;99.90
37642;DHT22;23486;51.956;5.888;2022-08-03T07:05:50;21.40;99.90
37642;DHT22;23486;51.956;5.888;2022-08-03T07:08:17;21.50;99.90
37642;DHT22;23486;51.956;5.888;2022-08-03T07:10:43;21.60;99.90
37642;DHT22;23486;51.956;5.888;2022-08-03T07:13:09;21.60;99.90
37642;DHT22;23486;51.956;5.888;2022-08-03T07:15:35;21.70;99.90
37642;DHT22;23486;51.956;5.888;2022-08-03T07:18:00;21.70;99.90
37642;DHT22;23486;51.956;5.888;2022-08-03T07:20:26;21.70;99.90
37642;DHT22;23486;51.956;5.888;2022-08-03T07:22:52;21.80;99.90
37642;DHT22;23486;51.956;5.888;2022-08-03T07:25:17;21.70;99.90
37642;DHT22;23486;51.956;5.888;2022-08-03T07:27:45;21.80;99.90
37642;DHT22;23486;51.956;5.888;2022-08-03T07:30:11;21.90;99.90
37642;DHT22;23486;51.956;5.888;2022-08-03T07:32:36;22.00;99.90
37642;DHT22;23486;51.956;5.888;2022-08-03T07:35:03;22.00;99.90
37642;DHT22;23486;51.956;5.888;2022-08-03T07:37:29;22.10;99.90
37642;DHT22;23486;51.956;5.888;2022-08-03T07:39:56;22.20;99.90
37642;DHT22;23486;51.956;5.888;2022-08-03T07:42:25;22.20;99.90
37642;DHT22;23486;51.956;5.888;2022-08-03T07:44:51;22.30;99.90
37642;DHT22;23486;51.956;5.888;2022-08-03T07:47:20;22.20;99.90
37642;DHT22;23486;51.956;5.888;2022-08-03T07:49:50;22.30;99.90
37642;DHT22;23486;51.956;5.888;2022-08-03T07:52:18;22.30;99.90
37642;DHT22;23486;51.956;5.888;2022-08-03T07:55:07;22.30;99.90
37642;DHT22;23486;51.956;5.888;2022-08-03T07:57:33;22.40;99.90
37642;DHT22;23486;51.956;5.888;2022-08-03T07:59:58;22.40;99.90
37642;DHT22;23486;51.956;5.888;2022-08-03T08:02:24;22.50;99.90
37642;DHT22;23486;51.956;5.888;2022-08-03T08:04:50;22.60;99.90
37642;DHT22;23486;51.956;5.888;2022-08-03T08:07:15;22.70;99.90
37642;DHT22;23486;51.956;5.888;2022-08-03T08:09:41;22.70;99.90
37642;DHT22;23486;51.956;5.888;2022-08-03T08:12:07;22.70;99.90
37642;DHT22;23486;51.956;5.888;2022-08-03T08:14:34;22.70;99.90
37642;DHT22;23486;51.956;5.888;2022-08-03T08:16:59;22.80;99.90
37642;DHT22;23486;51.956;5.888;2022-08-03T08:19:25;22.80;99.90
37642;DHT22;23486;51.956;5.888;2022-08-03T08:21:51;22.80;99.90
37642;DHT22;23486;51.956;5.888;2022-08-03T08:24:16;22.80;99.90
37642;DHT22;23486;51.956;5.888;2022-08-03T08:26:42;22.80;99.90
37642;DHT22;23486;51.956;5.888;2022-08-03T08:29:07;22.90;99.90
37642;DHT22;23486;51.956;5.888;2022-08-03T08:31:33;22.90;99.90
37642;DHT22;23486;51.956;5.888;2022-08-03T08:33:59;23.00;99.90
37642;DHT22;23486;51.956;5.888;2022-08-03T08:36:33;23.10;99.90
37642;DHT22;23486;51.956;5.888;2022-08-03T08:38:59;23.20;99.90
37642;DHT22;23486;51.956;5.888;2022-08-03T08:41:25;23.20;99.90
37642;DHT22;23486;51.956;5.888;2022-08-03T08:43:50;23.20;99.90
37642;DHT22;23486;51.956;5.888;2022-08-03T08:46:17;23.30;99.90
37642;DHT22;23486;51.956;5.888;2022-08-03T08:48:45;23.40;99.90
37642;DHT22;23486;51.956;5.888;2022-08-03T08:51:12;23.50;99.90
37642;DHT22;23486;51.956;5.888;2022-08-03T08:53:40;23.50;99.90
37642;DHT22;23486;51.956;5.888;2022-08-03T08:56:12;23.60;99.90
37642;DHT22;23486;51.956;5.888;2022-08-03T08:58:45;23.70;99.90
37642;DHT22;23486;51.956;5.888;2022-08-03T09:01:11;23.80;99.90
37642;DHT22;23486;51.956;5.888;2022-08-03T09:03:37;23.90;99.90
37642;DHT22;23486;51.956;5.888;2022-08-03T09:06:06;23.90;99.90
37642;DHT22;23486;51.956;5.888;2022-08-03T09:08:34;24.00;99.90
37642;DHT22;23486;51.956;5.888;2022-08-03T09:11:00;24.10;99.90
37642;DHT22;23486;51.956;5.888;2022-08-03T09:13:26;24.10;99.90
37642;DHT22;23486;51.956;5.888;2022-08-03T09:18:33;24.30;99.90
37642;DHT22;23486;51.956;5.888;2022-08-03T09:21:13;24.30;99.90
37642;DHT22;23486;51.956;5.888;2022-08-03T09:23:46;24.40;99.90
37642;DHT22;23486;51.956;5.888;2022-08-03T09:26:19;24.50;99.90
37642;DHT22;23486;51.956;5.888;2022-08-03T09:28:57;24.60;99.60
37642;DHT22;23486;51.956;5.888;2022-08-03T09:31:41;24.60;99.10
37642;DHT22;23486;51.956;5.888;2022-08-03T09:34:15;24.70;98.80
37642;DHT22;23486;51.956;5.888;2022-08-03T09:36:45;24.80;98.80
37642;DHT22;23486;51.956;5.888;2022-08-03T09:39:19;24.90;98.60
37642;DHT22;23486;51.956;5.888;2022-08-03T09:41:47;25.00;98.40
37642;DHT22;23486;51.956;5.888;2022-08-03T09:44:14;25.10;98.40
37642;DHT22;23486;51.956;5.888;2022-08-03T09:46:53;25.10;98.10
37642;DHT22;23486;51.956;5.888;2022-08-03T09:49:20;25.20;97.70
37642;DHT22;23486;51.956;5.888;2022-08-03T09:51:46;25.20;97.70
37642;DHT22;23486;51.956;5.888;2022-08-03T09:54:12;25.30;97.50
37642;DHT22;23486;51.956;5.888;2022-08-03T09:56:45;25.30;97.20
37642;DHT22;23486;51.956;5.888;2022-08-03T09:59:13;25.40;97.20
37642;DHT22;23486;51.956;5.888;2022-08-03T10:01:46;25.50;97.20
37642;DHT22;23486;51.956;5.888;2022-08-03T10:04:13;25.50;97.10
37642;DHT22;23486;51.956;5.888;2022-08-03T10:06:49;25.60;96.90
37642;DHT22;23486;51.956;5.888;2022-08-03T10:09:25;25.70;96.50
37642;DHT22;23486;51.956;5.888;2022-08-03T10:11:51;25.80;96.50
37642;DHT22;23486;51.956;5.888;2022-08-03T10:14:17;25.90;96.50
37642;DHT22;23486;51.956;5.888;2022-08-03T10:16:47;26.00;96.20
37642;DHT22;23486;51.956;5.888;2022-08-03T10:19:13;26.00;95.90
37642;DHT22;23486;51.956;5.888;2022-08-03T10:21:44;26.10;95.70
37642;DHT22;23486;51.956;5.888;2022-08-03T10:24:11;26.20;95.60
37642;DHT22;23486;51.956;5.888;2022-08-03T10:26:38;26.30;95.50
37642;DHT22;23486;51.956;5.888;2022-08-03T10:29:09;26.30;95.20
37642;DHT22;23486;51.956;5.888;2022-08-03T10:31:38;26.40;95.20
37642;DHT22;23486;51.956;5.888;2022-08-03T10:34:10;26.50;95.20
37642;DHT22;23486;51.956;5.888;2022-08-03T10:36:40;26.60;95.00
37642;DHT22;23486;51.956;5.888;2022-08-03T10:39:06;26.70;94.40
37642;DHT22;23486;51.956;5.888;2022-08-03T10:41:35;26.70;94.40
37642;DHT22;23486;51.956;5.888;2022-08-03T10:44:12;26.80;94.10
37642;DHT22;23486;51.956;5.888;2022-08-03T10:46:41;26.80;93.30
37642;DHT22;23486;51.956;5.888;2022-08-03T10:49:08;26.90;93.30
37642;DHT22;23486;51.956;5.888;2022-08-03T10:51:36;26.90;93.30
37642;DHT22;23486;51.956;5.888;2022-08-03T10:54:03;27.00;93.00
37642;DHT22;23486;51.956;5.888;2022-08-03T10:59:19;27.10;92.10
37642;DHT22;23486;51.956;5.888;2022-08-03T11:02:04;27.10;91.70
37642;DHT22;23486;51.956;5.888;2022-08-03T11:04:32;27.20;91.70
37642;DHT22;23486;51.956;5.888;2022-08-03T11:07:19;27.30;91.40
37642;DHT22;23486;51.956;5.888;2022-08-03T11:09:53;27.30;91.00
37642;DHT22;23486;51.956;5.888;2022-08-03T11:12:25;27.40;90.90
37642;DHT22;23486;51.956;5.888;2022-08-03T11:14:52;27.50;90.60
37642;DHT22;23486;51.956;5.888;2022-08-03T11:17:18;27.50;90.30
37642;DHT22;23486;51.956;5.888;2022-08-03T11:19:49;27.60;89.70
37642;DHT22;23486;51.956;5.888;2022-08-03T11:22:15;27.60;88.50
37642;DHT22;23486;51.956;5.888;2022-08-03T11:48:22;28.60;86.60
37642;DHT22;23486;51.956;5.888;2022-08-03T11:50:49;28.60;86.10
37642;DHT22;23486;51.956;5.888;2022-08-03T11:53:17;28.70;85.50
37642;DHT22;23486;51.956;5.888;2022-08-03T11:55:44;28.80;84.90
37642;DHT22;23486;51.956;5.888;2022-08-03T11:58:20;28.80;83.80
37642;DHT22;23486;51.956;5.888;2022-08-03T12:00:47;28.90;83.20
37642;DHT22;23486;51.956;5.888;2022-08-03T12:03:15;29.00;82.30
37642;DHT22;23486;51.956;5.888;2022-08-03T12:05:42;29.00;81.20
37642;DHT22;23486;51.956;5.888;2022-08-03T12:08:09;29.10;81.10
37642;DHT22;23486;51.956;5.888;2022-08-03T12:10:37;29.20;80.20
37642;DHT22;23486;51.956;5.888;2022-08-03T12:13:04;29.30;79.50
37642;DHT22;23486;51.956;5.888;2022-08-03T12:15:31;29.30;77.70
37642;DHT22;23486;51.956;5.888;2022-08-03T12:18:02;29.40;77.40
37642;DHT22;23486;51.956;5.888;2022-08-03T12:20:30;29.50;77.30
37642;DHT22;23486;51.956;5.888;2022-08-03T12:23:17;29.40;74.80
37642;DHT22;23486;51.956;5.888;2022-08-03T12:25:43;29.50;74.90
37642;DHT22;23486;51.956;5.888;2022-08-03T12:28:18;29.50;74.90
37642;DHT22;23486;51.956;5.888;2022-08-03T12:30:50;29.50;74.00
37642;DHT22;23486;51.956;5.888;2022-08-03T12:33:23;29.50;73.40
37642;DHT22;23486;51.956;5.888;2022-08-03T12:36:06;29.50;73.20
37642;DHT22;23486;51.956;5.888;2022-08-03T12:38:33;29.50;72.90
37642;DHT22;23486;51.956;5.888;2022-08-03T12:41:04;29.60;73.60
37642;DHT22;23486;51.956;5.888;2022-08-03T12:43:30;29.80;72.80
37642;DHT22;23486;51.956;5.888;2022-08-03T12:46:12;29.80;72.10
37642;DHT22;23486;51.956;5.888;2022-08-03T12:54:19;29.90;70.80
37642;DHT22;23486;51.956;5.888;2022-08-03T12:57:10;30.00;70.50
37642;DHT22;23486;51.956;5.888;2022-08-03T12:59:40;30.10;69.60
37642;DHT22;23486;51.956;5.888;2022-08-03T13:02:24;30.20;69.70
37642;DHT22;23486;51.956;5.888;2022-08-03T13:04:53;30.30;69.70
37642;DHT22;23486;51.956;5.888;2022-08-03T13:07:20;30.30;68.70
37642;DHT22;23486;51.956;5.888;2022-08-03T13:09:51;30.30;68.70
37642;DHT22;23486;51.956;5.888;2022-08-03T13:12:18;30.30;68.60
37642;DHT22;23486;51.956;5.888;2022-08-03T13:14:46;30.40;68.60
37642;DHT22;23486;51.956;5.888;2022-08-03T13:17:12;30.50;67.90
37642;DHT22;23486;51.956;5.888;2022-08-03T13:19:39;30.50;67.80
37642;DHT22;23486;51.956;5.888;2022-08-03T13:22:30;30.50;67.70
37642;DHT22;23486;51.956;5.888;2022-08-03T13:24:59;30.50;67.60
37642;DHT22;23486;51.956;5.888;2022-08-03T13:27:29;30.60;67.90
37642;DHT22;23486;51.956;5.888;2022-08-03T13:29:55;30.70;68.10
37642;DHT22;23486;51.956;5.888;2022-08-03T13:32:22;30.80;68.40
37642;DHT22;23486;51.956;5.888;2022-08-03T13:34:48;30.90;68.20
37642;DHT22;23486;51.956;5.888;2022-08-03T13:37:14;31.00;68.10
37642;DHT22;23486;51.956;5.888;2022-08-03T13:39:43;31.00;68.00
37642;DHT22;23486;51.956;5.888;2022-08-03T13:42:08;31.00;68.20
37642;DHT22;23486;51.956;5.888;2022-08-03T13:44:34;31.10;68.20
37642;DHT22;23486;51.956;5.888;2022-08-03T13:47:03;31.10;68.20
37642;DHT22;23486;51.956;5.888;2022-08-03T13:49:29;31.10;68.00
37642;DHT22;23486;51.956;5.888;2022-08-03T13:51:55;31.10;68.50
37642;DHT22;23486;51.956;5.888;2022-08-03T13:54:21;31.20;68.60
37642;DHT22;23486;51.956;5.888;2022-08-03T13:56:50;31.20;68.40
37642;DHT22;23486;51.956;5.888;2022-08-03T13:59:19;31.30;69.10
37642;DHT22;23486;51.956;5.888;2022-08-03T14:01:46;31.50;69.10
37642;DHT22;23486;51.956;5.888;2022-08-03T14:04:11;31.60;69.40
37642;DHT22;23486;51.956;5.888;2022-08-03T14:06:37;31.70;70.10
37642;DHT22;23486;51.956;5.888;2022-08-03T14:09:03;31.80;68.20
37642;DHT22;23486;51.956;5.888;2022-08-03T14:11:29;31.80;68.10
37642;DHT22;23486;51.956;5.888;2022-08-03T14:13:54;31.80;66.90
37642;DHT22;23486;51.956;5.888;2022-08-03T14:16:20;31.80;67.90
37642;DHT22;23486;51.956;5.888;2022-08-03T14:18:46;32.00;67.40
37642;DHT22;23486;51.956;5.888;2022-08-03T14:21:14;32.10;66.20
37642;DHT22;23486;51.956;5.888;2022-08-03T14:23:40;32.10;66.10
37642;DHT22;23486;51.956;5.888;2022-08-03T14:26:06;32.00;66.40
37642;DHT22;23486;51.956;5.888;2022-08-03T14:28:32;32.00;66.90
37642;DHT22;23486;51.956;5.888;2022-08-03T14:30:59;32.20;67.40
37642;DHT22;23486;51.956;5.888;2022-08-03T14:33:25;32.30;66.40
37642;DHT22;23486;51.956;5.888;2022-08-03T14:35:52;32.30;66.60
37642;DHT22;23486;51.956;5.888;2022-08-03T14:38:18;32.50;67.30
37642;DHT22;23486;51.956;5.888;2022-08-03T14:40:44;32.70;67.40
37642;DHT22;23486;51.956;5.888;2022-08-03T14:43:10;32.90;66.10
37642;DHT22;23486;51.956;5.888;2022-08-03T14:45:35;32.90;66.10
37642;DHT22;23486;51.956;5.888;2022-08-03T14:48:02;33.00;66.50
37642;DHT22;23486;51.956;5.888;2022-08-03T14:50:29;33.00;66.10
37642;DHT22;23486;51.956;5.888;2022-08-03T14:52:54;33.00;66.00
37642;DHT22;23486;51.956;5.888;2022-08-03T14:55:20;33.10;65.40
37642;DHT22;23486;51.956;5.888;2022-08-03T14:57:45;33.20;65.80
37642;DHT22;23486;51.956;5.888;2022-08-03T15:00:12;33.20;65.30
37642;DHT22;23486;51.956;5.888;2022-08-03T15:02:37;33.30;65.60
37642;DHT22;23486;51.956;5.888;2022-08-03T15:05:03;33.30;65.60
37642;DHT22;23486;51.956;5.888;2022-08-03T15:07:32;33.40;65.30
37642;DHT22;23486;51.956;5.888;2022-08-03T15:09:57;33.40;64.90
37642;DHT22;23486;51.956;5.888;2022-08-03T15:12:24;33.50;65.30
37642;DHT22;23486;51.956;5.888;2022-08-03T15:14:50;33.60;65.00
37642;DHT22;23486;51.956;5.888;2022-08-03T15:17:15;33.70;64.10
37642;DHT22;23486;51.956;5.888;2022-08-03T15:19:41;33.60;64.00
37642;DHT22;23486;51.956;5.888;2022-08-03T15:22:06;33.70;62.70
37642;DHT22;23486;51.956;5.888;2022-08-03T15:24:35;33.50;62.00
37642;DHT22;23486;51.956;5.888;2022-08-03T15:27:00;33.30;62.90
37642;DHT22;23486;51.956;5.888;2022-08-03T15:29:26;33.20;62.80
37642;DHT22;23486;51.956;5.888;2022-08-03T15:31:51;33.20;62.80
37642;DHT22;23486;51.956;5.888;2022-08-03T15:34:17;33.30;63.30
37642;DHT22;23486;51.956;5.888;2022-08-03T15:36:43;33.30;62.60
37642;DHT22;23486;51.956;5.888;2022-08-03T15:39:12;33.30;63.10
37642;DHT22;23486;51.956;5.888;2022-08-03T15:41:38;33.30;62.30
37642;DHT22;23486;51.956;5.888;2022-08-03T15:44:07;33.10;61.70
37642;DHT22;23486;51.956;5.888;2022-08-03T15:46:32;32.90;62.10
37642;DHT22;23486;51.956;5.888;2022-08-03T15:48:58;32.70;62.00
37642;DHT22;23486;51.956;5.888;2022-08-03T15:51:25;32.50;62.50
37642;DHT22;23486;51.956;5.888;2022-08-03T15:53:50;32.40;62.90
37642;DHT22;23486;51.956;5.888;2022-08-03T15:56:16;32.20;62.70
37642;DHT22;23486;51.956;5.888;2022-08-03T15:58:42;32.00;62.80
37642;DHT22;23486;51.956;5.888;2022-08-03T16:01:07;31.80;62.90
37642;DHT22;23486;51.956;5.888;2022-08-03T16:03:33;31.60;63.20
37642;DHT22;23486;51.956;5.888;2022-08-03T16:06:02;31.40;63.50
37642;DHT22;23486;51.956;5.888;2022-08-03T16:08:28;31.30;63.90
37642;DHT22;23486;51.956;5.888;2022-08-03T16:10:56;31.20;64.40
37642;DHT22;23486;51.956;5.888;2022-08-03T16:13:22;31.10;64.50
37642;DHT22;23486;51.956;5.888;2022-08-03T16:15:48;31.20;64.70
37642;DHT22;23486;51.956;5.888;2022-08-03T16:18:13;31.20;65.10
37642;DHT22;23486;51.956;5.888;2022-08-03T16:20:39;31.20;65.20
37642;DHT22;23486;51.956;5.888;2022-08-03T16:23:05;31.30;65.30
37642;DHT22;23486;51.956;5.888;2022-08-03T16:25:31;31.20;65.30